sensor_id;sensor_type;location;lat;lon;timestamp;pressure;altitude;pressure_sealevel;temperature;humidity
41898;BME280;27576;53.366;-1.498;2023-05-03T00:00:07;101439.88;;;9.17;100.00
41898;BME280;27576;53.366;-1.498;2023-05-03T00:02:34;101447.66;;;9.17;100.00
41898;BME280;27576;53.366;-1.498;2023-05-03T00:05:05;101481.72;;;9.30;100.00
41898;BME280;27576;53.366;-1.498;2023-05-03T00:07:32;101470.84;;;9.15;100.00
41898;BME280;27576;53.366;-1.498;2023-05-03T00:09:57;101458.47;;;9.06;100.00
41898;BME280;27576;53.366;-1.498;2023-05-03T00:12:23;101457.31;;;8.98;100.00
41898;BME280;27576;53.366;-1.498;2023-05-03T00:14:48;101464.19;;;8.98;100.00
41898;BME280;27576;53.366;-1.498;2023-05-03T00:17:14;101445.56;;;8.82;100.00
41898;BME280;27576;53.366;-1.498;2023-05-03T00:19:39;101475.25;;;8.94;100.00
41898;BME280;27576;53.366;-1.498;2023-05-03T00:22:05;101463.75;;;8.85;100.00
41898;BME280;27576;53.366;-1.498;2023-05-03T00:24:31;101465.47;;;8.85;100.00
41898;BME280;27576;53.366;-1.498;2023-05-03T00:26:56;101471.72;;;8.92;100.00
41898;BME280;27576;53.366;-1.498;2023-05-03T00:29:22;101483.19;;;8.98;100.00
41898;BME280;27576;53.366;-1.498;2023-05-03T00:31:47;101371.09;;;8.26;100.00
41898;BME280;27576;53.366;-1.498;2023-05-03T00:34:13;101459.94;;;8.76;100.00
41898;BME280;27576;53.366;-1.498;2023-05-03T00:36:38;101490.47;;;8.86;100.00
41898;BME280;27576;53.366;-1.498;2023-05-03T00:39:04;101493.81;;;8.83;100.00
41898;BME280;27576;53.366;-1.498;2023-05-03T00:41:29;101502.25;;;8.78;100.00
41898;BME280;27576;53.366;-1.498;2023-05-03T00:43:54;101460.03;;;8.55;100.00
41898;BME280;27576;53.366;-1.498;2023-05-03T00:46:20;101476.88;;;8.68;100.00
41898;BME280;27576;53.366;-1.498;2023-05-03T00:48:47;101488.44;;;8.77;100.00
41898;BME280;27576;53.366;-1.498;2023-05-03T00:51:14;101490.84;;;8.73;100.00
41898;BME280;27576;53.366;-1.498;2023-05-03T00:53:41;101482.91;;;8.68;100.00
41898;BME280;27576;53.366;-1.498;2023-05-03T00:56:06;101426.50;;;8.34;100.00
41898;BME280;27576;53.366;-1.498;2023-05-03T00:58:33;101435.31;;;8.39;100.00
41898;BME280;27576;53.366;-1.498;2023-05-03T01:01:01;101461.41;;;8.45;100.00
41898;BME280;27576;53.366;-1.498;2023-05-03T01:03:27;101472.78;;;8.50;100.00
41898;BME280;27576;53.366;-1.498;2023-05-03T01:06:07;101473.59;;;8.49;100.00
41898;BME280;27576;53.366;-1.498;2023-05-03T01:14:35;101469.16;;;8.45;100.00
41898;BME280;27576;53.366;-1.498;2023-05-03T01:17:10;101465.44;;;8.39;100.00
41898;BME280;27576;53.366;-1.498;2023-05-03T01:19:43;101454.81;;;8.32;100.00
41898;BME280;27576;53.366;-1.498;2023-05-03T01:24:44;101469.91;;;8.43;100.00
41898;BME280;27576;53.366;-1.498;2023-05-03T01:27:11;101418.06;;;8.17;100.00
41898;BME280;27576;53.366;-1.498;2023-05-03T01:29:37;101411.13;;;8.15;100.00
41898;BME280;27576;53.366;-1.498;2023-05-03T01:32:08;101449.78;;;8.35;100.00
41898;BME280;27576;53.366;-1.498;2023-05-03T01:34:49;101434.81;;;8.27;100.00
41898;BME280;27576;53.366;-1.498;2023-05-03T01:37:16;101434.78;;;8.25;100.00
41898;BME280;27576;53.366;-1.498;2023-05-03T01:40:03;101465.28;;;8.35;100.00
41898;BME280;27576;53.366;-1.498;2023-05-03T01:42:35;101432.66;;;8.15;100.00
41898;BME280;27576;53.366;-1.498;2023-05-03T01:45:02;101465.09;;;8.31;100.00
41898;BME280;27576;53.366;-1.498;2023-05-03T01:47:28;101429.09;;;8.13;100.00
41898;BME280;27576;53.366;-1.498;2023-05-03T01:49:53;101428.47;;;8.19;100.00
41898;BME280;27576;53.366;-1.498;2023-05-03T01:52:19;101411.00;;;8.11;100.00
41898;BME280;27576;53.366;-1.498;2023-05-03T01:54:44;101421.75;;;8.22;100.00
41898;BME280;27576;53.366;-1.498;2023-05-03T01:57:10;101434.88;;;8.28;100.00
41898;BME280;27576;53.366;-1.498;2023-05-03T01:59:35;101420.66;;;8.17;100.00
41898;BME280;27576;53.366;-1.498;2023-05-03T02:02:00;101394.44;;;8.06;100.00
41898;BME280;27576;53.366;-1.498;2023-05-03T02:04:26;101422.91;;;8.30;100.00
41898;BME280;27576;53.366;-1.498;2023-05-03T02:06:51;101415.00;;;8.26;100.00
41898;BME280;27576;53.366;-1.498;2023-05-03T02:09:17;101399.03;;;8.14;100.00
41898;BME280;27576;53.366;-1.498;2023-05-03T02:11:42;101410.13;;;8.11;100.00
41898;BME280;27576;53.366;-1.498;2023-05-03T02:14:08;101434.66;;;8.22;100.00
41898;BME280;27576;53.366;-1.498;2023-05-03T02:16:33;101435.53;;;8.23;100.00
41898;BME280;27576;53.366;-1.498;2023-05-03T02:18:59;101390.69;;;7.98;100.00
41898;BME280;27576;53.366;-1.498;2023-05-03T02:21:25;101385.56;;;8.00;100.00
41898;BME280;27576;53.366;-1.498;2023-05-03T02:23:51;101378.53;;;7.96;100.00
41898;BME280;27576;53.366;-1.498;2023-05-03T02:26:17;101420.66;;;8.17;100.00
41898;BME280;27576;53.366;-1.498;2023-05-03T02:28:43;101394.03;;;7.96;100.00
41898;BME280;27576;53.366;-1.498;2023-05-03T02:31:08;101390.22;;;7.86;100.00
41898;BME280;27576;53.366;-1.498;2023-05-03T02:33:34;101402.22;;;7.85;100.00
41898;BME280;27576;53.366;-1.498;2023-05-03T02:35:59;101418.66;;;7.87;100.00
41898;BME280;27576;53.366;-1.498;2023-05-03T02:38:25;101422.09;;;7.88;100.00
41898;BME280;27576;53.366;-1.498;2023-05-03T02:40:51;101413.34;;;7.84;100.00
41898;BME280;27576;53.366;-1.498;2023-05-03T02:43:16;101408.66;;;7.74;100.00
41898;BME280;27576;53.366;-1.498;2023-05-03T02:45:42;101422.81;;;7.84;100.00
41898;BME280;27576;53.366;-1.498;2023-05-03T02:48:08;101415.72;;;7.78;100.00
41898;BME280;27576;53.366;-1.498;2023-05-03T02:50:34;101407.53;;;7.68;100.00
41898;BME280;27576;53.366;-1.498;2023-05-03T02:52:59;101415.59;;;7.75;100.00
41898;BME280;27576;53.366;-1.498;2023-05-03T02:55:25;101407.25;;;7.61;100.00
41898;BME280;27576;53.366;-1.498;2023-05-03T02:57:50;101427.34;;;7.69;100.00
41898;BME280;27576;53.366;-1.498;2023-05-03T03:00:16;101427.38;;;7.70;100.00
41898;BME280;27576;53.366;-1.498;2023-05-03T03:02:44;101398.28;;;7.52;100.00
41898;BME280;27576;53.366;-1.498;2023-05-03T03:05:10;101404.47;;;7.55;100.00
41898;BME280;27576;53.366;-1.498;2023-05-03T03:07:38;101427.81;;;7.58;100.00
41898;BME280;27576;53.366;-1.498;2023-05-03T03:10:05;101406.59;;;7.45;100.00
41898;BME280;27576;53.366;-1.498;2023-05-03T03:12:31;101439.19;;;7.63;100.00
41898;BME280;27576;53.366;-1.498;2023-05-03T03:14:57;101431.44;;;7.63;100.00
41898;BME280;27576;53.366;-1.498;2023-05-03T03:17:22;101391.66;;;7.37;100.00
41898;BME280;27576;53.366;-1.498;2023-05-03T03:19:48;101433.75;;;7.57;100.00
41898;BME280;27576;53.366;-1.498;2023-05-03T03:22:14;101393.38;;;7.37;100.00
41898;BME280;27576;53.366;-1.498;2023-05-03T03:24:39;101409.53;;;7.54;100.00
41898;BME280;27576;53.366;-1.498;2023-05-03T03:27:05;101406.72;;;7.48;100.00
41898;BME280;27576;53.366;-1.498;2023-05-03T03:29:31;101430.47;;;7.61;100.00
41898;BME280;27576;53.366;-1.498;2023-05-03T03:31:56;101410.16;;;7.48;100.00
41898;BME280;27576;53.366;-1.498;2023-05-03T03:34:23;101418.09;;;7.53;100.00
41898;BME280;27576;53.366;-1.498;2023-05-03T03:36:48;101406.72;;;7.48;100.00
41898;BME280;27576;53.366;-1.498;2023-05-03T03:39:14;101425.41;;;7.63;100.00
41898;BME280;27576;53.366;-1.498;2023-05-03T03:41:39;101402.50;;;7.50;100.00
41898;BME280;27576;53.366;-1.498;2023-05-03T03:44:05;101420.25;;;7.63;100.00
41898;BME280;27576;53.366;-1.498;2023-05-03T03:46:30;101408.75;;;7.55;100.00
41898;BME280;27576;53.366;-1.498;2023-05-03T03:48:56;101397.31;;;7.50;100.00
41898;BME280;27576;53.366;-1.498;2023-05-03T03:51:21;101433.38;;;7.69;100.00
41898;BME280;27576;53.366;-1.498;2023-05-03T03:53:46;101420.25;;;7.63;100.00
41898;BME280;27576;53.366;-1.498;2023-05-03T03:56:12;101405.38;;;7.57;100.00
41898;BME280;27576;53.366;-1.498;2023-05-03T03:58:37;101408.75;;;7.55;100.00
41898;BME280;27576;53.366;-1.498;2023-05-03T04:01:03;101424.97;;;7.52;100.00
41898;BME280;27576;53.366;-1.498;2023-05-03T04:03:28;101415.94;;;7.43;100.00
41898;BME280;27576;53.366;-1.498;2023-05-03T04:05:53;101410.69;;;7.40;100.00
41898;BME280;27576;53.366;-1.498;2023-05-03T04:08:19;101397.19;;;7.26;100.00
41898;BME280;27576;53.366;-1.498;2023-05-03T04:10:44;101400.59;;;7.25;100.00
41898;BME280;27576;53.366;-1.498;2023-05-03T04:13:10;101371.59;;;7.09;100.00
41898;BME280;27576;53.366;-1.498;2023-05-03T04:15:35;101395.94;;;7.16;100.00
41898;BME280;27576;53.366;-1.498;2023-05-03T04:18:01;101373.28;;;7.09;100.00
41898;BME280;27576;53.366;-1.498;2023-05-03T04:20:26;101371.59;;;7.09;100.00
41898;BME280;27576;53.366;-1.498;2023-05-03T04:22:52;101405.75;;;7.25;100.00
41898;BME280;27576;53.366;-1.498;2023-05-03T04:25:17;101408.28;;;7.23;100.00
41898;BME280;27576;53.366;-1.498;2023-05-03T04:27:43;101347.63;;;6.91;100.00
41898;BME280;27576;53.366;-1.498;2023-05-03T04:30:09;101400.47;;;7.22;100.00
41898;BME280;27576;53.366;-1.498;2023-05-03T04:32:36;101421.41;;;7.29;100.00
41898;BME280;27576;53.366;-1.498;2023-05-03T04:35:05;101390.66;;;7.13;100.00
41898;BME280;27576;53.366;-1.498;2023-05-03T04:37:35;101423.25;;;7.32;100.00
41898;BME280;27576;53.366;-1.498;2023-05-03T04:40:01;101405.56;;;7.20;100.00
41898;BME280;27576;53.366;-1.498;2023-05-03T04:42:26;101424.94;;;7.31;100.00
41898;BME280;27576;53.366;-1.498;2023-05-03T04:44:53;101408.16;;;7.20;100.00
41898;BME280;27576;53.366;-1.498;2023-05-03T04:47:18;101391.28;;;7.07;100.00
41898;BME280;27576;53.366;-1.498;2023-05-03T04:49:44;101402.56;;;7.11;100.00
41898;BME280;27576;53.366;-1.498;2023-05-03T04:52:11;101403.34;;;7.08;100.00
41898;BME280;27576;53.366;-1.498;2023-05-03T04:54:36;101411.13;;;7.10;100.00
41898;BME280;27576;53.366;-1.498;2023-05-03T04:57:01;101438.25;;;7.21;100.00
41898;BME280;27576;53.366;-1.498;2023-05-03T04:59:27;101420.38;;;7.05;100.00
41898;BME280;27576;53.366;-1.498;2023-05-03T05:01:52;101382.66;;;6.87;100.00
41898;BME280;27576;53.366;-1.498;2023-05-03T05:04:17;101416.16;;;7.07;100.00
41898;BME280;27576;53.366;-1.498;2023-05-03T05:06:43;101416.97;;;7.06;100.00
41898;BME280;27576;53.366;-1.498;2023-05-03T05:09:20;101438.19;;;7.20;100.00
41898;BME280;27576;53.366;-1.498;2023-05-03T05:11:46;101415.22;;;7.05;100.00
41898;BME280;27576;53.366;-1.498;2023-05-03T05:14:12;101386.16;;;6.88;100.00
41898;BME280;27576;53.366;-1.498;2023-05-03T05:16:38;101405.59;;;7.01;100.00
41898;BME280;27576;53.366;-1.498;2023-05-03T05:19:03;101391.50;;;6.93;100.00
41898;BME280;27576;53.366;-1.498;2023-05-03T05:21:28;101447.75;;;7.22;100.00
41898;BME280;27576;53.366;-1.498;2023-05-03T05:23:54;101430.13;;;7.12;100.00
41898;BME280;27576;53.366;-1.498;2023-05-03T05:26:20;101411.56;;;7.00;100.00
41898;BME280;27576;53.366;-1.498;2023-05-03T05:28:45;101437.91;;;7.13;100.00
41898;BME280;27576;53.366;-1.498;2023-05-03T05:31:10;101436.09;;;7.11;100.00
41898;BME280;27576;53.366;-1.498;2023-05-03T05:33:36;101410.88;;;7.04;100.00
41898;BME280;27576;53.366;-1.498;2023-05-03T05:36:01;101433.84;;;7.19;100.00
41898;BME280;27576;53.366;-1.498;2023-05-03T05:38:27;101428.50;;;7.14;100.00
41898;BME280;27576;53.366;-1.498;2023-05-03T05:40:52;101439.13;;;7.22;100.00
41898;BME280;27576;53.366;-1.498;2023-05-03T05:43:18;101443.53;;;7.24;100.00
41898;BME280;27576;53.366;-1.498;2023-05-03T05:45:43;101451.81;;;7.36;100.00
41898;BME280;27576;53.366;-1.498;2023-05-03T05:48:08;101440.53;;;7.34;100.00
41898;BME280;27576;53.366;-1.498;2023-05-03T05:50:34;101421.41;;;7.29;100.00
41898;BME280;27576;53.366;-1.498;2023-05-03T05:53:00;101461.25;;;7.57;100.00
41898;BME280;27576;53.366;-1.498;2023-05-03T05:55:26;101435.31;;;7.54;100.00
41898;BME280;27576;53.366;-1.498;2023-05-03T05:57:51;101457.00;;;7.78;100.00
41898;BME280;27576;53.366;-1.498;2023-05-03T06:00:17;101436.72;;;7.87;100.00
41898;BME280;27576;53.366;-1.498;2023-05-03T06:02:43;101449.22;;;7.99;100.00
41898;BME280;27576;53.366;-1.498;2023-05-03T06:05:10;101457.31;;;8.08;100.00
41898;BME280;27576;53.366;-1.498;2023-05-03T06:07:35;101424.81;;;7.91;100.00
41898;BME280;27576;53.366;-1.498;2023-05-03T06:10:01;101459.34;;;8.16;100.00
41898;BME280;27576;53.366;-1.498;2023-05-03T06:12:28;101470.78;;;8.22;100.00
41898;BME280;27576;53.366;-1.498;2023-05-03T06:14:54;101422.00;;;8.07;100.00
41898;BME280;27576;53.366;-1.498;2023-05-03T06:17:19;101426.59;;;8.15;100.00
41898;BME280;27576;53.366;-1.498;2023-05-03T06:19:47;101416.41;;;8.18;100.00
41898;BME280;27576;53.366;-1.498;2023-05-03T06:22:13;101421.16;;;8.29;100.00
41898;BME280;27576;53.366;-1.498;2023-05-03T06:24:39;101470.59;;;8.61;100.00
41898;BME280;27576;53.366;-1.498;2023-05-03T06:27:04;101423.63;;;8.49;100.00
41898;BME280;27576;53.366;-1.498;2023-05-03T06:29:30;101422.44;;;8.63;100.00
41898;BME280;27576;53.366;-1.498;2023-05-03T06:31:55;101459.88;;;8.97;100.00
41898;BME280;27576;53.366;-1.498;2023-05-03T06:34:20;101435.88;;;9.01;100.00
41898;BME280;27576;53.366;-1.498;2023-05-03T06:36:46;101368.47;;;8.71;100.00
41898;BME280;27576;53.366;-1.498;2023-05-03T06:39:12;101424.09;;;9.09;100.00
41898;BME280;27576;53.366;-1.498;2023-05-03T06:41:37;101452.56;;;9.34;100.00
41898;BME280;27576;53.366;-1.498;2023-05-03T06:44:04;101438.03;;;9.38;100.00
41898;BME280;27576;53.366;-1.498;2023-05-03T06:46:31;101460.50;;;9.65;100.00
41898;BME280;27576;53.366;-1.498;2023-05-03T06:48:56;101400.31;;;9.45;100.00
41898;BME280;27576;53.366;-1.498;2023-05-03T06:51:22;101439.31;;;9.76;100.00
41898;BME280;27576;53.366;-1.498;2023-05-03T06:53:52;101422.91;;;9.76;100.00
41898;BME280;27576;53.366;-1.498;2023-05-03T06:56:19;101409.91;;;9.74;100.00
41898;BME280;27576;53.366;-1.498;2023-05-03T06:58:44;101413.31;;;9.73;99.61
41898;BME280;27576;53.366;-1.498;2023-05-03T07:01:09;101456.47;;;10.00;97.34
41898;BME280;27576;53.366;-1.498;2023-05-03T07:03:36;101406.50;;;9.75;97.08
41898;BME280;27576;53.366;-1.498;2023-05-03T07:06:02;101454.28;;;10.14;98.23
41898;BME280;27576;53.366;-1.498;2023-05-03T07:08:28;101413.44;;;10.03;95.20
41898;BME280;27576;53.366;-1.498;2023-05-03T07:10:53;101405.81;;;10.09;93.28
41898;BME280;27576;53.366;-1.498;2023-05-03T07:13:18;101434.97;;;10.29;94.14
41898;BME280;27576;53.366;-1.498;2023-05-03T07:15:44;101422.44;;;10.43;93.96
41898;BME280;27576;53.366;-1.498;2023-05-03T07:18:10;101448.97;;;10.65;90.85
41898;BME280;27576;53.366;-1.498;2023-05-03T07:20:35;101430.81;;;10.65;91.87
41898;BME280;27576;53.366;-1.498;2023-05-03T07:23:01;101430.38;;;10.79;90.31
41898;BME280;27576;53.366;-1.498;2023-05-03T07:25:26;101432.34;;;10.88;88.25
41898;BME280;27576;53.366;-1.498;2023-05-03T07:27:51;101430.50;;;10.84;87.20
41898;BME280;27576;53.366;-1.498;2023-05-03T07:30:17;101441.44;;;11.04;88.19
41898;BME280;27576;53.366;-1.498;2023-05-03T07:32:43;101442.28;;;11.03;83.14
41898;BME280;27576;53.366;-1.498;2023-05-03T07:35:08;101431.66;;;10.94;85.36
41898;BME280;27576;53.366;-1.498;2023-05-03T07:37:35;101413.41;;;10.91;86.20
41898;BME280;27576;53.366;-1.498;2023-05-03T07:40:04;101430.50;;;11.16;86.15
41898;BME280;27576;53.366;-1.498;2023-05-03T07:42:31;101455.09;;;11.28;85.21
41898;BME280;27576;53.366;-1.498;2023-05-03T07:44:56;101413.25;;;11.16;84.12
41898;BME280;27576;53.366;-1.498;2023-05-03T07:47:22;101392.53;;;11.18;84.45
41898;BME280;27576;53.366;-1.498;2023-05-03T07:49:47;101451.38;;;11.52;82.39
41898;BME280;27576;53.366;-1.498;2023-05-03T07:52:15;101446.25;;;11.55;84.10
41898;BME280;27576;53.366;-1.498;2023-05-03T07:54:41;101438.72;;;11.64;82.82
41898;BME280;27576;53.366;-1.498;2023-05-03T07:57:07;101434.50;;;11.69;78.61
41898;BME280;27576;53.366;-1.498;2023-05-03T07:59:33;101434.38;;;11.63;80.58
41898;BME280;27576;53.366;-1.498;2023-05-03T08:01:58;101396.88;;;11.52;80.57
41898;BME280;27576;53.366;-1.498;2023-05-03T08:04:24;101418.91;;;11.68;80.62
41898;BME280;27576;53.366;-1.498;2023-05-03T08:06:49;101427.78;;;11.77;79.13
41898;BME280;27576;53.366;-1.498;2023-05-03T08:09:14;101413.50;;;11.60;78.86
41898;BME280;27576;53.366;-1.498;2023-05-03T08:11:40;101441.44;;;11.70;81.25
41898;BME280;27576;53.366;-1.498;2023-05-03T08:14:05;101401.78;;;11.41;80.87
41898;BME280;27576;53.366;-1.498;2023-05-03T08:16:31;101424.66;;;11.56;80.92
41898;BME280;27576;53.366;-1.498;2023-05-03T08:18:56;101413.53;;;11.62;81.48
41898;BME280;27576;53.366;-1.498;2023-05-03T08:21:21;101430.25;;;11.71;80.54
41898;BME280;27576;53.366;-1.498;2023-05-03T08:23:49;101438.16;;;11.77;80.00
41898;BME280;27576;53.366;-1.498;2023-05-03T08:26:15;101415.44;;;11.69;81.05
41898;BME280;27576;53.366;-1.498;2023-05-03T08:28:41;101438.84;;;12.05;82.32
41898;BME280;27576;53.366;-1.498;2023-05-03T08:31:07;101429.75;;;12.22;82.16
41898;BME280;27576;53.366;-1.498;2023-05-03T08:33:32;101424.59;;;12.25;77.88
41898;BME280;27576;53.366;-1.498;2023-05-03T08:35:58;101434.44;;;12.40;79.45
41898;BME280;27576;53.366;-1.498;2023-05-03T08:38:23;101408.16;;;12.26;79.79
41898;BME280;27576;53.366;-1.498;2023-05-03T08:40:50;101439.06;;;12.53;78.82
41898;BME280;27576;53.366;-1.498;2023-05-03T08:43:19;101407.75;;;12.49;77.77
41898;BME280;27576;53.366;-1.498;2023-05-03T08:45:46;101428.88;;;12.64;76.60
41898;BME280;27576;53.366;-1.498;2023-05-03T08:48:12;101414.91;;;12.59;77.57
41898;BME280;27576;53.366;-1.498;2023-05-03T08:50:38;101419.66;;;12.78;79.64
41898;BME280;27576;53.366;-1.498;2023-05-03T08:53:10;101438.34;;;13.03;77.98
41898;BME280;27576;53.366;-1.498;2023-05-03T08:55:36;101394.03;;;13.00;78.43
41898;BME280;27576;53.366;-1.498;2023-05-03T08:58:08;101420.44;;;13.20;76.40
41898;BME280;27576;53.366;-1.498;2023-05-03T09:00:37;101420.56;;;13.24;75.77
41898;BME280;27576;53.366;-1.498;2023-05-03T09:03:03;101436.44;;;13.40;75.17
41898;BME280;27576;53.366;-1.498;2023-05-03T09:05:34;101429.66;;;13.48;75.43
41898;BME280;27576;53.366;-1.498;2023-05-03T09:08:03;101433.34;;;13.61;75.53
41898;BME280;27576;53.366;-1.498;2023-05-03T09:10:30;101397.63;;;13.52;72.80
41898;BME280;27576;53.366;-1.498;2023-05-03T09:13:00;101433.50;;;13.71;73.09
41898;BME280;27576;53.366;-1.498;2023-05-03T09:15:30;101436.22;;;13.79;69.13
41898;BME280;27576;53.366;-1.498;2023-05-03T09:18:20;101430.31;;;13.88;69.65
41898;BME280;27576;53.366;-1.498;2023-05-03T09:20:47;101419.88;;;13.88;69.90
41898;BME280;27576;53.366;-1.498;2023-05-03T09:23:17;101399.97;;;13.93;68.96
41898;BME280;27576;53.366;-1.498;2023-05-03T09:25:43;101421.88;;;14.06;69.12
41898;BME280;27576;53.366;-1.498;2023-05-03T09:28:10;101395.63;;;13.92;69.97
41898;BME280;27576;53.366;-1.498;2023-05-03T09:30:35;101403.69;;;14.07;68.99
41898;BME280;27576;53.366;-1.498;2023-05-03T09:33:01;101422.94;;;14.18;67.68
41898;BME280;27576;53.366;-1.498;2023-05-03T09:35:26;101397.59;;;14.08;69.08
41898;BME280;27576;53.366;-1.498;2023-05-03T09:37:53;101430.13;;;14.35;67.77
41898;BME280;27576;53.366;-1.498;2023-05-03T09:40:18;101417.91;;;14.31;67.96
41898;BME280;27576;53.366;-1.498;2023-05-03T09:43:09;101427.63;;;14.42;65.18
41898;BME280;27576;53.366;-1.498;2023-05-03T09:45:38;101425.91;;;14.46;65.40
41898;BME280;27576;53.366;-1.498;2023-05-03T09:48:05;101407.84;;;14.55;66.58
41898;BME280;27576;53.366;-1.498;2023-05-03T09:50:33;101428.03;;;14.71;64.01
41898;BME280;27576;53.366;-1.498;2023-05-03T09:53:01;101423.78;;;14.78;62.32
41898;BME280;27576;53.366;-1.498;2023-05-03T09:55:30;101419.47;;;14.85;62.05
41898;BME280;27576;53.366;-1.498;2023-05-03T09:57:56;101422.72;;;14.64;61.50
41898;BME280;27576;53.366;-1.498;2023-05-03T10:00:22;101419.28;;;14.66;64.83
41898;BME280;27576;53.366;-1.498;2023-05-03T10:02:52;101406.09;;;14.57;63.11
41898;BME280;27576;53.366;-1.498;2023-05-03T10:05:23;101399.28;;;14.68;63.48
41898;BME280;27576;53.366;-1.498;2023-05-03T10:07:51;101403.72;;;14.74;63.00
41898;BME280;27576;53.366;-1.498;2023-05-03T10:10:20;101403.81;;;14.82;63.13
41898;BME280;27576;53.366;-1.498;2023-05-03T10:12:46;101387.28;;;14.84;63.20
41898;BME280;27576;53.366;-1.498;2023-05-03T10:15:13;101418.03;;;15.11;65.57
41898;BME280;27576;53.366;-1.498;2023-05-03T10:17:41;101383.28;;;15.17;62.99
41898;BME280;27576;53.366;-1.498;2023-05-03T10:25:30;101387.94;;;15.50;57.04
41898;BME280;27576;53.366;-1.498;2023-05-03T10:28:06;101398.56;;;15.71;59.42
41898;BME280;27576;53.366;-1.498;2023-05-03T10:30:39;101390.78;;;15.79;59.32
41898;BME280;27576;53.366;-1.498;2023-05-03T10:35:39;101393.59;;;16.05;58.02
41898;BME280;27576;53.366;-1.498;2023-05-03T10:38:16;101397.13;;;16.13;55.05
41898;BME280;27576;53.366;-1.498;2023-05-03T10:40:42;101393.59;;;16.05;56.34
41898;BME280;27576;53.366;-1.498;2023-05-03T10:46:02;101407.47;;;15.97;58.68
41898;BME280;27576;53.366;-1.498;2023-05-03T10:48:28;101392.72;;;16.06;58.96
41898;BME280;27576;53.366;-1.498;2023-05-03T10:50:55;101377.94;;;16.11;59.25
41898;BME280;27576;53.366;-1.498;2023-05-03T10:56:02;101398.88;;;16.16;57.61
41898;BME280;27576;53.366;-1.498;2023-05-03T10:58:36;101393.63;;;16.11;57.79
41898;BME280;27576;53.366;-1.498;2023-05-03T11:01:03;101383.19;;;16.11;59.12
41898;BME280;27576;53.366;-1.498;2023-05-03T11:03:33;101380.63;;;16.24;58.83
41898;BME280;27576;53.366;-1.498;2023-05-03T11:05:59;101364.97;;;16.37;59.49
41898;BME280;27576;53.366;-1.498;2023-05-03T11:08:25;101384.31;;;16.72;57.34
41898;BME280;27576;53.366;-1.498;2023-05-03T11:10:58;101359.00;;;16.72;51.02
41898;BME280;27576;53.366;-1.498;2023-05-03T11:13:25;101366.97;;;17.03;55.85
41898;BME280;27576;53.366;-1.498;2023-05-03T11:15:55;101368.72;;;17.24;54.42
41898;BME280;27576;53.366;-1.498;2023-05-03T11:18:23;101366.13;;;17.39;54.87
41898;BME280;27576;53.366;-1.498;2023-05-03T11:20:50;101344.28;;;17.51;53.91
41898;BME280;27576;53.366;-1.498;2023-05-03T11:23:17;101332.94;;;17.41;54.10
41898;BME280;27576;53.366;-1.498;2023-05-03T11:25:43;101330.31;;;17.39;53.18
41898;BME280;27576;53.366;-1.498;2023-05-03T11:28:08;101335.53;;;17.49;52.36
41898;BME280;27576;53.366;-1.498;2023-05-03T11:30:34;101356.50;;;17.56;51.14
41898;BME280;27576;53.366;-1.498;2023-05-03T11:33:01;101352.16;;;17.49;51.55
41898;BME280;27576;53.366;-1.498;2023-05-03T11:35:28;101350.38;;;17.36;49.78
41898;BME280;27576;53.366;-1.498;2023-05-03T11:37:54;101339.94;;;17.30;53.68
41898;BME280;27576;53.366;-1.498;2023-05-03T11:40:20;101298.88;;;17.24;52.03
41898;BME280;27576;53.366;-1.498;2023-05-03T11:42:55;101336.41;;;17.51;51.61
41898;BME280;27576;53.366;-1.498;2023-05-03T11:45:24;101318.09;;;17.46;52.95
41898;BME280;27576;53.366;-1.498;2023-05-03T11:47:50;101315.44;;;17.58;53.38
41898;BME280;27576;53.366;-1.498;2023-05-03T11:50:17;101336.41;;;17.75;53.82
41898;BME280;27576;53.366;-1.498;2023-05-03T11:52:43;101316.31;;;17.66;49.98
41898;BME280;27576;53.366;-1.498;2023-05-03T11:55:10;101320.66;;;17.71;53.07
41898;BME280;27576;53.366;-1.498;2023-05-03T11:57:36;101304.06;;;17.67;53.14
41898;BME280;27576;53.366;-1.498;2023-05-03T12:00:10;101288.38;;;17.55;48.83
41898;BME280;27576;53.366;-1.498;2023-05-03T12:02:39;101310.19;;;17.74;52.47
41898;BME280;27576;53.366;-1.498;2023-05-03T12:05:07;101297.09;;;17.81;52.21
41898;BME280;27576;53.366;-1.498;2023-05-03T12:07:32;101300.56;;;17.86;50.32
41898;BME280;27576;53.366;-1.498;2023-05-03T12:09:58;101304.03;;;17.93;47.14
41898;BME280;27576;53.366;-1.498;2023-05-03T12:12:23;101284.00;;;17.61;46.87
41898;BME280;27576;53.366;-1.498;2023-05-03T12:15:01;101303.19;;;17.79;47.06
41898;BME280;27576;53.366;-1.498;2023-05-03T12:17:37;101314.53;;;17.90;47.46
41898;BME280;27576;53.366;-1.498;2023-05-03T12:20:23;101301.44;;;17.84;47.71
41898;BME280;27576;53.366;-1.498;2023-05-03T12:22:54;101288.34;;;17.73;48.71
41898;BME280;27576;53.366;-1.498;2023-05-03T12:25:21;101297.09;;;17.63;50.68
41898;BME280;27576;53.366;-1.498;2023-05-03T12:27:47;101312.81;;;17.60;52.02
41898;BME280;27576;53.366;-1.498;2023-05-03T12:30:13;101297.09;;;17.37;51.88
41898;BME280;27576;53.366;-1.498;2023-05-03T12:32:39;101296.25;;;17.38;54.00
41898;BME280;27576;53.366;-1.498;2023-05-03T12:35:06;101301.47;;;17.44;53.75
41898;BME280;27576;53.366;-1.498;2023-05-03T12:37:33;101274.41;;;17.21;54.00
41898;BME280;27576;53.366;-1.498;2023-05-03T12:39:59;101270.09;;;17.18;53.10
41898;BME280;27576;53.366;-1.498;2023-05-03T12:42:24;101254.34;;;17.26;54.04
41898;BME280;27576;53.366;-1.498;2023-05-03T12:44:50;101289.25;;;17.40;51.49
41898;BME280;27576;53.366;-1.498;2023-05-03T12:47:15;101292.75;;;17.33;52.95
41898;BME280;27576;53.366;-1.498;2023-05-03T12:49:41;101272.69;;;17.23;53.21
41898;BME280;27576;53.366;-1.498;2023-05-03T12:52:06;101269.19;;;17.22;52.81
41898;BME280;27576;53.366;-1.498;2023-05-03T12:54:33;101263.09;;;17.22;51.42
41898;BME280;27576;53.366;-1.498;2023-05-03T12:56:58;101269.16;;;17.48;51.79
41898;BME280;27576;53.366;-1.498;2023-05-03T12:59:28;101268.22;;;17.74;51.25